Time;durP1;ratioP1;P1;durP2;ratioP2;P2;SDS_P1;SDS_P2;PMS_P1;PMS_P2;Temp;Humidity;BMP_temperature;BMP_pressure;BME280_temperature;BME280_humidity;BME280_pressure;Samples;Min_cycle;Max_cycle;Signal;HPM_P1;HPM_P2
2022/05/23 00:01:23;;;;;;;4.90;2.33;;;16.50;99.90;;;;;;4956433;28;20265;-89
2022/05/23 00:03:51;;;;;;;4.40;2.53;;;16.40;99.90;;;;;;4956075;29;20217;-89
2022/05/23 00:06:20;;;;;;;5.20;2.70;;;16.40;99.90;;;;;;4956804;29;20301;-90
2022/05/23 00:08:47;;;;;;;5.38;2.53;;;16.30;99.90;;;;;;4956121;29;20241;-87
2022/05/23 00:11:16;;;;;;;6.00;2.10;;;16.30;99.90;;;;;;4955682;28;20206;-89
2022/05/23 00:13:43;;;;;;;4.05;2.90;;;16.30;99.90;;;;;;4954925;29;20800;-88
2022/05/23 00:16:16;;;;;;;5.40;2.10;;;16.20;99.90;;;;;;4955207;28;20264;-88
2022/05/23 00:18:43;;;;;;;6.40;2.50;;;16.20;99.90;;;;;;4954946;29;20185;-88
2022/05/23 00:21:09;;;;;;;4.28;2.67;;;16.10;99.90;;;;;;4954388;28;20232;-89
2022/05/23 00:23:37;;;;;;;7.10;2.57;;;16.10;99.90;;;;;;4954734;28;20498;-85
2022/05/23 00:26:05;;;;;;;8.05;3.03;;;16.10;99.90;;;;;;4954182;28;20221;-80
2022/05/23 00:28:33;;;;;;;5.57;2.90;;;16.00;99.90;;;;;;4952845;29;20232;-84
2022/05/23 00:31:00;;;;;;;3.17;2.40;;;16.00;99.90;;;;;;4952098;28;20201;-88
2022/05/23 00:36:11;;;;;;;5.50;2.60;;;15.90;99.90;;;;;;4952170;29;20621;-85
2022/05/23 00:38:38;;;;;;;8.52;3.10;;;15.90;99.90;;;;;;4952017;28;20241;-90
2022/05/23 00:44:01;;;;;;;4.87;2.60;;;15.80;99.90;;;;;;4955054;29;20189;-90
2022/05/23 00:46:28;;;;;;;5.20;2.80;;;15.70;99.90;;;;;;4955281;28;20201;-89
2022/05/23 00:48:54;;;;;;;5.60;3.27;;;15.70;99.90;;;;;;4954664;28;20205;-89
2022/05/23 00:51:21;;;;;;;5.77;3.17;;;15.60;99.90;;;;;;4954389;28;20197;-89
2022/05/23 00:53:52;;;;;;;4.03;2.50;;;15.60;99.90;;;;;;4953753;28;20217;-88
2022/05/23 00:56:23;;;;;;;4.07;2.53;;;15.60;99.90;;;;;;4952964;28;20205;-81
2022/05/23 00:58:52;;;;;;;8.70;3.60;;;15.60;99.90;;;;;;4954293;28;20201;-90
2022/05/23 01:01:23;;;;;;;5.95;2.90;;;15.50;99.90;;;;;;4954739;28;20221;-89
2022/05/23 01:03:51;;;;;;;5.75;2.88;;;15.50;99.90;;;;;;4947717;28;20523;-88
2022/05/23 01:06:17;;;;;;;6.47;2.70;;;15.50;99.90;;;;;;4934021;29;20206;-85
2022/05/23 01:08:46;;;;;;;5.57;2.70;;;15.50;99.90;;;;;;4946609;28;20213;-88
2022/05/23 01:11:14;;;;;;;6.00;2.80;;;15.40;99.90;;;;;;4952415;28;20241;-88
2022/05/23 01:13:40;;;;;;;9.85;3.17;;;15.40;99.90;;;;;;4952929;29;20236;-84
2022/05/23 01:16:08;;;;;;;7.88;3.30;;;15.40;99.90;;;;;;4952499;28;20205;-88
2022/05/23 01:18:36;;;;;;;6.13;2.83;;;15.40;99.90;;;;;;4953536;29;20201;-88
2022/05/23 01:21:05;;;;;;;4.68;2.60;;;15.40;99.90;;;;;;4952832;28;20300;-87
2022/05/23 01:23:40;;;;;;;9.02;2.95;;;15.40;99.90;;;;;;4953931;29;20520;-89
2022/05/23 01:26:08;;;;;;;5.97;2.57;;;15.30;99.90;;;;;;4949776;28;20628;-87
2022/05/23 01:28:37;;;;;;;4.50;2.57;;;15.30;99.90;;;;;;4954224;28;20229;-89
2022/05/23 01:31:04;;;;;;;4.43;2.33;;;15.30;99.90;;;;;;4954894;29;20200;-89
2022/05/23 01:33:31;;;;;;;4.93;2.40;;;15.30;99.90;;;;;;4953787;28;20545;-89
2022/05/23 01:35:59;;;;;;;3.93;2.30;;;15.30;99.90;;;;;;4954869;29;20205;-87
2022/05/23 01:38:26;;;;;;;8.18;2.95;;;15.20;99.90;;;;;;4954818;29;20602;-88
2022/05/23 01:40:54;;;;;;;4.03;2.03;;;15.20;99.90;;;;;;4954447;29;20235;-90
2022/05/23 01:43:23;;;;;;;4.50;2.30;;;15.10;99.90;;;;;;4952460;28;20213;-89
2022/05/23 01:45:49;;;;;;;5.37;2.77;;;15.10;99.90;;;;;;4953688;29;20201;-88
2022/05/23 01:48:16;;;;;;;4.93;2.40;;;15.10;99.90;;;;;;4952133;28;20229;-88
2022/05/23 01:50:43;;;;;;;4.13;2.23;;;15.00;99.90;;;;;;4953021;29;20205;-88
2022/05/23 01:53:10;;;;;;;4.43;2.40;;;15.00;99.90;;;;;;4948831;28;20617;-89
2022/05/23 01:55:37;;;;;;;5.67;2.43;;;15.00;99.90;;;;;;4953265;28;20252;-89
2022/05/23 01:58:05;;;;;;;4.40;2.70;;;14.90;99.90;;;;;;4939724;29;20213;-89
2022/05/23 02:03:17;;;;;;;4.67;3.00;;;14.80;99.90;;;;;;4979313;28;20207;-89
2022/05/23 02:05:44;;;;;;;3.97;2.37;;;14.80;99.90;;;;;;4975188;28;20215;-88
2022/05/23 02:08:11;;;;;;;4.40;2.50;;;14.80;99.90;;;;;;4958165;28;20205;-83
2022/05/23 02:10:38;;;;;;;4.33;2.67;;;14.70;99.90;;;;;;4959698;28;20243;-87
2022/05/23 02:13:05;;;;;;;4.57;2.80;;;14.70;99.90;;;;;;4958903;28;20935;-89
2022/05/23 02:15:34;;;;;;;3.97;2.53;;;14.70;99.90;;;;;;4958974;28;20189;-88
2022/05/23 02:18:01;;;;;;;4.23;2.83;;;14.60;99.90;;;;;;4956848;28;20205;-89
2022/05/23 02:20:29;;;;;;;7.17;3.13;;;14.60;99.90;;;;;;4942067;29;20209;-88
2022/05/23 02:22:56;;;;;;;4.70;2.73;;;14.50;99.90;;;;;;4940082;29;20585;-88
2022/05/23 02:25:24;;;;;;;5.27;3.00;;;14.50;99.90;;;;;;4939760;28;20403;-78
2022/05/23 02:27:51;;;;;;;5.33;3.53;;;14.50;99.90;;;;;;4939560;29;20237;-89
2022/05/23 02:30:19;;;;;;;7.50;3.57;;;14.50;99.90;;;;;;4940009;29;20207;-87
2022/05/23 02:32:47;;;;;;;4.30;2.97;;;14.50;99.90;;;;;;4948217;28;20203;-89
2022/05/23 02:35:15;;;;;;;4.80;3.20;;;14.50;99.90;;;;;;4978051;28;20465;-82
2022/05/23 02:37:42;;;;;;;6.80;3.60;;;14.50;99.90;;;;;;4977700;28;20200;-88
2022/05/23 02:40:11;;;;;;;6.07;3.57;;;14.50;99.90;;;;;;4972225;28;20209;-90
2022/05/23 02:42:38;;;;;;;5.87;3.30;;;14.50;99.90;;;;;;4958550;28;20236;-89
2022/05/23 02:45:07;;;;;;;7.17;3.47;;;14.50;99.90;;;;;;4959179;28;20213;-86
2022/05/23 02:47:33;;;;;;;5.60;2.93;;;14.50;99.90;;;;;;4958974;28;20244;-83
2022/05/23 02:50:02;;;;;;;6.13;3.33;;;14.50;99.90;;;;;;4957854;28;20208;-88
2022/05/23 02:52:30;;;;;;;8.53;3.63;;;14.50;99.90;;;;;;4958485;28;20215;-86
2022/05/23 02:54:57;;;;;;;5.80;3.47;;;14.60;99.90;;;;;;4958841;28;20209;-79
2022/05/23 02:57:23;;;;;;;7.07;3.70;;;14.60;99.90;;;;;;4941997;28;20217;-87
2022/05/23 02:59:50;;;;;;;5.90;2.73;;;14.60;99.90;;;;;;4938157;29;20206;-88
2022/05/23 03:05:03;;;;;;;5.20;2.63;;;14.60;99.90;;;;;;4960271;29;20212;-88
2022/05/23 03:07:30;;;;;;;3.53;2.83;;;14.60;99.90;;;;;;4959511;29;20260;-88
2022/05/23 03:09:56;;;;;;;6.60;3.13;;;14.60;99.90;;;;;;4955923;28;20213;-88
2022/05/23 03:12:23;;;;;;;6.23;3.07;;;14.60;99.90;;;;;;4957260;29;20216;-88
2022/05/23 03:14:52;;;;;;;5.07;3.00;;;14.60;99.90;;;;;;4956696;29;20590;-88
2022/05/23 03:17:19;;;;;;;5.70;3.20;;;14.60;99.90;;;;;;4957723;29;20288;-88
2022/05/23 03:19:45;;;;;;;6.10;3.43;;;14.60;99.90;;;;;;4957481;28;20201;-88
2022/05/23 03:27:44;;;;;;;6.03;3.73;;;14.60;99.90;;;;;;4976847;28;20351;-89
2022/05/23 03:30:12;;;;;;;4.83;2.90;;;14.60;99.90;;;;;;4968787;28;20205;-89
2022/05/23 03:32:39;;;;;;;5.63;3.00;;;14.60;99.90;;;;;;4956712;29;20197;-88
2022/05/23 03:35:08;;;;;;;6.43;3.50;;;14.70;99.90;;;;;;4944840;28;20209;-89
2022/05/23 03:37:36;;;;;;;5.23;3.23;;;14.70;99.90;;;;;;4952007;28;20225;-89
2022/05/23 03:40:04;;;;;;;3.75;2.72;;;14.70;99.90;;;;;;4971595;28;20204;-89
2022/05/23 03:42:31;;;;;;;6.73;3.50;;;14.70;99.90;;;;;;4955607;28;20275;-83
2022/05/23 03:44:58;;;;;;;6.67;3.60;;;14.70;99.90;;;;;;4952073;28;20565;-80
2022/05/23 03:47:24;;;;;;;4.70;2.97;;;14.70;99.90;;;;;;4948364;28;20213;-77
2022/05/23 03:49:51;;;;;;;5.70;3.53;;;14.80;99.90;;;;;;4931275;29;20205;-80
2022/05/23 03:52:20;;;;;;;5.17;3.30;;;14.80;99.90;;;;;;4931508;29;20549;-81
2022/05/23 03:54:48;;;;;;;5.63;3.17;;;14.80;99.90;;;;;;4937612;28;20209;-80
2022/05/23 03:57:15;;;;;;;5.53;2.83;;;14.90;99.90;;;;;;4930592;28;20213;-78
2022/05/23 03:59:42;;;;;;;7.13;3.43;;;14.90;99.90;;;;;;4929837;29;20923;-79
2022/05/23 04:02:09;;;;;;;4.60;3.13;;;14.90;99.90;;;;;;4931681;28;20226;-79
2022/05/23 04:04:36;;;;;;;5.10;3.00;;;14.90;99.90;;;;;;4951743;29;20209;-80
2022/05/23 04:07:05;;;;;;;5.43;3.10;;;15.00;99.90;;;;;;4951529;29;20213;-87
2022/05/23 04:09:33;;;;;;;5.32;3.53;;;15.00;99.90;;;;;;4952103;29;20272;-79
2022/05/23 04:12:01;;;;;;;5.63;3.63;;;15.00;99.90;;;;;;4950209;28;20212;-79
2022/05/23 04:14:28;;;;;;;5.93;3.00;;;15.10;99.90;;;;;;4950379;29;20209;-79
2022/05/23 04:16:55;;;;;;;4.28;2.78;;;15.20;99.90;;;;;;4950603;29;20212;-79
2022/05/23 04:19:23;;;;;;;5.47;2.92;;;15.20;99.90;;;;;;4951497;29;20263;-82
2022/05/23 04:21:50;;;;;;;4.60;2.47;;;15.20;99.90;;;;;;4950269;28;20960;-88
2022/05/23 04:24:18;;;;;;;6.32;3.92;;;15.30;99.90;;;;;;4954793;28;20534;-87
2022/05/23 04:26:45;;;;;;;5.25;3.40;;;15.30;99.90;;;;;;4953440;28;20209;-82
2022/05/23 04:29:13;;;;;;;7.10;3.60;;;15.30;99.90;;;;;;4949395;28;20237;-78
2022/05/23 04:31:40;;;;;;;8.27;4.20;;;15.40;99.90;;;;;;4949469;28;20240;-85
2022/05/23 04:36:51;;;;;;;9.27;4.93;;;15.40;99.90;;;;;;4948454;29;20193;-84
2022/05/23 04:39:18;;;;;;;4.80;3.60;;;15.40;99.90;;;;;;4950823;28;20252;-85
2022/05/23 04:41:44;;;;;;;6.00;4.20;;;15.40;99.90;;;;;;4950349;28;20221;-86
2022/05/23 04:44:15;;;;;;;10.33;3.67;;;15.40;99.90;;;;;;4951440;29;20213;-82
2022/05/23 04:49:41;;;;;;;7.53;4.05;;;15.40;99.90;;;;;;4950910;28;20221;-82
2022/05/23 04:49:49;;;;;;;8.47;4.10;;;15.40;99.90;;;;;;4950979;29;20197;-81
2022/05/23 04:52:19;;;;;;;8.30;3.87;;;15.40;99.90;;;;;;4951230;29;20593;-84
2022/05/23 04:54:48;;;;;;;4.23;3.50;;;15.40;99.90;;;;;;4951629;28;20231;-82
2022/05/23 04:57:15;;;;;;;4.90;3.60;;;15.40;99.90;;;;;;4951656;29;20216;-83
2022/05/23 04:59:44;;;;;;;6.47;3.70;;;15.40;99.90;;;;;;4950771;28;20654;-82
2022/05/23 05:02:11;;;;;;;5.53;3.40;;;15.40;99.90;;;;;;4951340;29;20239;-82
2022/05/23 05:04:37;;;;;;;6.82;3.92;;;15.40;99.90;;;;;;4951800;29;20209;-87
2022/05/23 05:07:04;;;;;;;5.13;3.40;;;15.50;99.90;;;;;;4951277;29;20212;-87
2022/05/23 05:09:32;;;;;;;5.47;3.13;;;15.50;99.90;;;;;;4950645;28;20221;-87
2022/05/23 05:11:58;;;;;;;4.07;3.03;;;15.60;99.90;;;;;;4949672;28;20202;-84
2022/05/23 05:14:27;;;;;;;5.10;3.42;;;15.60;99.90;;;;;;4951480;29;20216;-84
2022/05/23 05:16:55;;;;;;;6.55;3.45;;;15.70;99.90;;;;;;4950759;28;20209;-79
2022/05/23 05:19:22;;;;;;;4.40;3.90;;;15.90;99.90;;;;;;4951736;29;20201;-86
2022/05/23 05:21:49;;;;;;;7.43;3.72;;;16.20;99.90;;;;;;4951667;28;20232;-82
2022/05/23 05:24:17;;;;;;;5.93;3.78;;;16.50;99.90;;;;;;4951305;29;20601;-81
2022/05/23 05:26:44;;;;;;;9.68;3.83;;;16.80;99.90;;;;;;4950057;28;20209;-79
2022/05/23 05:29:11;;;;;;;4.97;4.13;;;16.90;99.90;;;;;;4949594;28;20229;-80
2022/05/23 05:31:45;;;;;;;6.85;3.53;;;16.90;99.90;;;;;;4950559;28;20202;-85
2022/05/23 05:34:17;;;;;;;6.10;3.90;;;16.90;99.90;;;;;;4952647;28;20243;-87
2022/05/23 05:36:46;;;;;;;3.88;3.00;;;16.90;99.90;;;;;;4948781;28;20209;-87
2022/05/23 05:39:17;;;;;;;4.30;3.05;;;16.90;99.90;;;;;;4935233;29;20197;-88
2022/05/23 05:41:49;;;;;;;4.97;3.58;;;17.00;99.90;;;;;;4934188;29;20222;-80
2022/05/23 05:44:21;;;;;;;7.00;3.80;;;17.10;99.90;;;;;;4942659;29;20209;-88
2022/05/23 05:46:52;;;;;;;7.80;3.83;;;17.20;99.90;;;;;;4954210;29;20589;-87
2022/05/23 05:49:25;;;;;;;6.30;3.58;;;17.30;99.90;;;;;;4953623;29;20219;-87
2022/05/23 05:51:55;;;;;;;7.03;4.15;;;17.40;99.90;;;;;;4951267;28;20206;-88
2022/05/23 05:54:26;;;;;;;10.10;4.57;;;17.50;99.90;;;;;;4953798;29;20570;-88
2022/05/23 05:56:53;;;;;;;9.07;4.47;;;17.50;99.90;;;;;;4953295;28;20209;-89
2022/05/23 05:59:21;;;;;;;9.57;3.80;;;17.50;99.90;;;;;;4953754;28;20205;-87
2022/05/23 06:01:48;;;;;;;8.88;4.40;;;17.60;99.90;;;;;;4952627;28;20224;-88
2022/05/23 06:04:14;;;;;;;7.60;3.33;;;17.60;99.90;;;;;;4944849;28;20224;-89
2022/05/23 06:12:11;;;;;;;5.95;3.88;;;17.60;99.90;;;;;;4949947;29;20298;-87
2022/05/23 06:14:38;;;;;;;5.63;4.00;;;17.60;99.90;;;;;;4941902;28;20205;-83
2022/05/23 06:17:07;;;;;;;9.85;4.70;;;17.70;99.90;;;;;;4934407;29;20209;-88
2022/05/23 06:19:38;;;;;;;7.72;4.93;;;17.80;99.90;;;;;;4934252;29;20277;-88
2022/05/23 06:22:07;;;;;;;9.27;5.07;;;17.90;99.90;;;;;;4932815;29;20229;-84
2022/05/23 06:24:34;;;;;;;6.90;4.72;;;18.20;99.90;;;;;;4933179;29;20902;-88
2022/05/23 06:27:03;;;;;;;9.07;4.78;;;18.30;99.90;;;;;;4933478;29;20723;-89
2022/05/23 06:29:30;;;;;;;7.57;4.57;;;18.50;99.90;;;;;;4933086;29;20225;-89
2022/05/23 06:31:57;;;;;;;11.32;4.88;;;18.50;99.90;;;;;;4932004;29;20487;-90
2022/05/23 06:34:24;;;;;;;9.05;4.80;;;18.60;99.90;;;;;;4932390;29;20240;-83
2022/05/23 06:36:50;;;;;;;10.25;4.90;;;18.60;99.90;;;;;;4946666;28;20216;-88
2022/05/23 06:39:19;;;;;;;6.28;5.40;;;18.60;99.90;;;;;;4950667;28;20213;-86
2022/05/23 06:41:45;;;;;;;9.57;4.53;;;18.70;99.90;;;;;;4949823;28;20612;-89
2022/05/23 06:44:12;;;;;;;7.18;4.85;;;18.80;99.90;;;;;;4954593;28;20208;-82
2022/05/23 06:46:39;;;;;;;8.88;5.55;;;18.80;99.90;;;;;;4949198;28;20217;-81
2022/05/23 06:49:07;;;;;;;8.85;4.90;;;18.80;99.90;;;;;;4916381;29;20293;-85
2022/05/23 06:51:34;;;;;;;9.55;5.72;;;18.90;99.90;;;;;;4937142;29;20271;-85
2022/05/23 06:54:00;;;;;;;7.90;5.10;;;19.00;99.90;;;;;;4937598;28;20283;-81
2022/05/23 06:56:29;;;;;;;8.15;5.95;;;19.10;99.90;;;;;;4952905;29;20206;-84
2022/05/23 06:58:56;;;;;;;9.05;5.28;;;19.10;99.90;;;;;;4953328;29;20291;-82
2022/05/23 07:01:23;;;;;;;8.30;5.53;;;19.10;99.90;;;;;;4948194;28;20432;-83
2022/05/23 07:03:50;;;;;;;9.85;6.43;;;19.00;99.90;;;;;;4946214;28;20236;-83
2022/05/23 07:14:31;;;;;;;13.18;6.95;;;19.00;99.90;;;;;;4946599;29;20278;-80
2022/05/23 07:17:00;;;;;;;11.07;6.68;;;19.00;99.90;;;;;;4945304;28;20209;-81
2022/05/23 07:19:27;;;;;;;10.57;5.82;;;19.00;99.90;;;;;;4949368;29;20221;-82
2022/05/23 07:21:54;;;;;;;11.50;5.95;;;19.00;99.90;;;;;;4948981;29;20592;-82
2022/05/23 07:24:21;;;;;;;14.23;7.05;;;19.00;99.90;;;;;;4947955;28;20621;-79
2022/05/23 07:26:49;;;;;;;10.18;6.30;;;19.00;99.90;;;;;;4949382;28;20205;-82
2022/05/23 07:29:16;;;;;;;10.68;6.15;;;19.00;99.90;;;;;;4949415;28;20239;-82
2022/05/23 07:31:44;;;;;;;10.48;6.68;;;19.10;99.90;;;;;;4947873;29;20220;-78
2022/05/23 07:34:11;;;;;;;9.18;5.13;;;19.00;99.90;;;;;;4949247;28;20245;-79
2022/05/23 07:36:37;;;;;;;8.48;6.40;;;19.00;99.90;;;;;;4948848;28;20225;-82
2022/05/23 07:39:07;;;;;;;7.78;5.22;;;19.20;99.90;;;;;;4947937;29;20208;-82
2022/05/23 07:41:35;;;;;;;9.82;5.47;;;19.30;99.90;;;;;;4932114;29;20292;-79
2022/05/23 07:44:04;;;;;;;16.85;6.57;;;19.50;99.90;;;;;;4947018;29;20247;-78
2022/05/23 07:46:30;;;;;;;8.25;6.18;;;19.70;99.90;;;;;;4942409;29;20201;-82
2022/05/23 07:48:57;;;;;;;11.48;6.65;;;19.80;99.90;;;;;;4945656;28;20213;-81
2022/05/23 07:51:24;;;;;;;6.50;5.35;;;19.80;99.90;;;;;;4948612;29;20244;-83
2022/05/23 08:02:15;;;;;;;7.22;5.50;;;19.90;99.90;;;;;;4944958;28;20232;-80
2022/05/23 08:04:42;;;;;;;7.65;5.07;;;20.00;99.90;;;;;;4946097;29;20577;-81
2022/05/23 08:07:10;;;;;;;10.35;5.63;;;20.00;99.90;;;;;;4946226;29;20209;-82
2022/05/23 08:09:38;;;;;;;10.07;6.18;;;19.90;99.90;;;;;;4947116;28;20236;-82
2022/05/23 08:12:06;;;;;;;11.70;6.63;;;19.80;99.90;;;;;;4946851;28;20213;-82
2022/05/23 08:14:35;;;;;;;9.10;5.60;;;19.80;99.90;;;;;;4947387;29;20220;-81
2022/05/23 08:17:02;;;;;;;8.43;6.32;;;19.80;99.90;;;;;;4948010;29;20205;-82
2022/05/23 08:19:29;;;;;;;8.30;6.10;;;19.80;99.90;;;;;;4947220;28;20197;-81
2022/05/23 08:21:58;;;;;;;11.18;6.80;;;19.80;99.90;;;;;;4946796;29;20576;-82
2022/05/23 08:24:25;;;;;;;9.38;6.35;;;19.90;99.90;;;;;;4949662;29;20201;-83
2022/05/23 08:26:53;;;;;;;7.18;4.63;;;19.90;99.90;;;;;;4947857;28;20213;-83
2022/05/23 08:29:20;;;;;;;11.57;7.03;;;19.90;99.90;;;;;;4948957;29;20237;-83
2022/05/23 08:31:49;;;;;;;10.90;6.32;;;20.00;99.90;;;;;;4950375;29;20209;-83
2022/05/23 08:34:16;;;;;;;9.82;5.68;;;20.10;99.90;;;;;;4948710;29;20256;-84
2022/05/23 08:36:43;;;;;;;8.80;5.68;;;20.30;99.90;;;;;;4948349;29;20220;-83
2022/05/23 08:39:10;;;;;;;7.53;5.18;;;20.50;99.90;;;;;;4948299;28;20205;-79
2022/05/23 08:41:39;;;;;;;14.48;7.07;;;20.60;99.90;;;;;;4947902;28;20239;-81
2022/05/23 08:44:16;;;;;;;15.10;7.88;;;20.80;99.90;;;;;;4946726;28;20237;-82
2022/05/23 08:46:50;;;;;;;9.55;5.75;;;20.70;99.90;;;;;;4944592;29;20504;-79
2022/05/23 08:49:34;;;;;;;9.13;6.68;;;20.90;99.90;;;;;;4945528;29;20459;-78
2022/05/23 08:52:14;;;;;;;10.93;5.95;;;20.90;99.90;;;;;;4943405;29;20213;-81
2022/05/23 08:54:52;;;;;;;13.88;7.18;;;21.10;99.90;;;;;;4945105;28;20257;-80
2022/05/23 08:57:33;;;;;;;14.48;7.80;;;21.30;99.90;;;;;;4943510;29;20205;-80
2022/05/23 09:00:05;;;;;;;9.30;6.28;;;21.50;99.90;;;;;;4943887;29;20850;-83
2022/05/23 09:02:39;;;;;;;11.60;7.78;;;21.80;99.90;;;;;;4946256;28;20308;-81
2022/05/23 09:05:10;;;;;;;13.07;8.10;;;22.00;99.90;;;;;;4946336;29;20217;-80
2022/05/23 09:07:47;;;;;;;12.35;7.63;;;22.10;99.90;;;;;;4944588;28;20604;-81
2022/05/23 09:10:22;;;;;;;8.80;6.75;;;22.10;99.90;;;;;;4946517;29;20205;-82
2022/05/23 09:12:51;;;;;;;10.30;7.78;;;22.20;99.90;;;;;;4946398;29;20800;-79
2022/05/23 09:15:18;;;;;;;14.02;8.40;;;22.30;99.90;;;;;;4945444;29;20198;-82
2022/05/23 09:17:51;;;;;;;10.27;7.88;;;22.50;99.90;;;;;;4946773;29;20790;-84
2022/05/23 09:20:23;;;;;;;15.55;8.43;;;22.60;99.90;;;;;;4941192;29;20434;-82
2022/05/23 09:22:53;;;;;;;13.63;9.20;;;22.80;99.90;;;;;;4947858;29;20276;-83
2022/05/23 09:25:23;;;;;;;10.02;6.47;;;23.00;99.90;;;;;;4945163;28;20220;-81
2022/05/23 09:27:56;;;;;;;13.82;9.48;;;23.10;99.90;;;;;;4949087;29;20260;-83
2022/05/23 09:30:23;;;;;;;10.55;7.55;;;23.30;99.90;;;;;;4949683;29;20298;-81
2022/05/23 09:32:55;;;;;;;9.52;6.07;;;23.40;99.90;;;;;;4950639;29;20300;-80
2022/05/23 09:35:25;;;;;;;10.15;5.72;;;23.50;99.90;;;;;;4951805;28;20225;-85
2022/05/23 09:38:14;;;;;;;10.57;5.65;;;24.10;99.90;;;;;;4952283;28;20219;-83
2022/05/23 09:40:41;;;;;;;8.98;5.70;;;24.60;99.90;;;;;;4951519;28;20205;-83
2022/05/23 09:49:20;;;;;;;10.38;6.30;;;25.00;99.90;;;;;;4953766;28;20200;-83
2022/05/23 09:51:50;;;;;;;11.18;7.97;;;24.90;99.90;;;;;;4949242;29;20190;-85
2022/05/23 09:54:20;;;;;;;6.78;6.05;;;25.10;99.90;;;;;;4967328;28;20245;-83
2022/05/23 09:56:47;;;;;;;10.48;6.57;;;25.30;99.90;;;;;;4966350;29;20193;-85
2022/05/23 09:59:27;;;;;;;10.55;7.07;;;24.80;99.90;;;;;;4953675;28;20213;-83
2022/05/23 10:01:54;;;;;;;10.80;7.25;;;24.80;99.90;;;;;;4950185;29;20211;-85
2022/05/23 10:04:27;;;;;;;11.88;8.43;;;24.70;99.90;;;;;;4949346;28;20607;-84
2022/05/23 10:06:54;;;;;;;14.18;7.82;;;24.60;99.90;;;;;;4949426;29;20204;-84
2022/05/23 10:09:31;;;;;;;9.27;6.22;;;24.40;99.90;;;;;;4932478;28;20218;-82
2022/05/23 10:12:00;;;;;;;11.85;8.88;;;24.30;99.90;;;;;;4940808;28;20687;-82
2022/05/23 10:14:45;;;;;;;9.70;7.90;;;24.10;99.90;;;;;;4948146;29;20213;-78
2022/05/23 10:17:25;;;;;;;14.52;9.45;;;24.00;99.90;;;;;;4949028;29;20208;-83
2022/05/23 10:19:54;;;;;;;11.27;8.38;;;23.90;99.90;;;;;;4952461;28;20915;-85
2022/05/23 10:22:24;;;;;;;14.20;9.93;;;23.90;99.90;;;;;;4954325;28;20212;-79
2022/05/23 10:24:56;;;;;;;14.35;9.00;;;23.80;99.90;;;;;;4953573;29;20236;-81
2022/05/23 10:27:36;;;;;;;9.88;7.57;;;23.70;99.90;;;;;;4954579;29;20197;-84
2022/05/23 10:30:06;;;;;;;11.05;8.38;;;23.50;99.90;;;;;;4951966;28;20514;-84
2022/05/23 10:32:41;;;;;;;14.85;11.05;;;23.50;99.90;;;;;;4954612;29;20265;-87
2022/05/23 10:35:16;;;;;;;15.18;12.20;;;23.40;99.90;;;;;;4955500;29;20499;-87
2022/05/23 10:37:45;;;;;;;12.68;11.23;;;23.30;99.90;;;;;;4956585;29;20590;-87
2022/05/23 10:43:07;;;;;;;12.50;11.20;;;22.90;99.90;;;;;;4955467;28;20204;-87
2022/05/23 10:45:41;;;;;;;16.48;12.63;;;22.70;99.90;;;;;;4956817;29;20201;-80
2022/05/23 10:48:41;;;;;;;14.73;13.00;;;22.60;99.90;;;;;;4954560;29;20192;-87
2022/05/23 10:51:21;;;;;;;16.45;14.23;;;22.40;99.90;;;;;;4945990;28;20217;-82
2022/05/23 10:54:02;;;;;;;13.05;11.75;;;22.20;99.90;;;;;;4954788;29;20280;-85
2022/05/23 10:56:42;;;;;;;15.57;14.05;;;22.10;99.90;;;;;;4934870;29;20194;-85
2022/05/23 10:59:13;;;;;;;13.00;11.68;;;22.00;99.90;;;;;;4949549;29;20439;-86
2022/05/23 11:01:55;;;;;;;12.45;11.15;;;21.90;99.90;;;;;;4954775;29;20186;-83
2022/05/23 11:04:40;;;;;;;17.17;14.07;;;21.80;99.90;;;;;;4940811;28;20951;-84
2022/05/23 11:07:28;;;;;;;12.40;9.63;;;21.70;99.90;;;;;;4954028;29;20209;-84
2022/05/23 11:10:02;;;;;;;12.25;9.55;;;21.60;99.90;;;;;;4953784;28;20700;-85
2022/05/23 11:12:36;;;;;;;16.15;12.55;;;21.60;99.90;;;;;;4955052;29;20616;-83
2022/05/23 11:15:17;;;;;;;14.88;13.05;;;21.60;99.90;;;;;;4954963;29;20196;-87
2022/05/23 11:17:49;;;;;;;16.73;13.68;;;21.50;99.90;;;;;;4954541;29;20919;-80
2022/05/23 11:20:24;;;;;;;19.20;13.55;;;21.50;99.90;;;;;;4953033;28;20204;-82
2022/05/23 11:22:59;;;;;;;15.07;13.10;;;21.40;99.90;;;;;;4954122;29;20205;-85
2022/05/23 11:25:30;;;;;;;17.38;13.75;;;21.10;99.90;;;;;;4954467;29;20200;-87
2022/05/23 11:33:46;;;;;;;12.88;10.73;;;20.60;99.90;;;;;;4952005;29;20279;-86
2022/05/23 11:36:23;;;;;;;26.40;15.38;;;20.50;99.90;;;;;;4951323;28;20232;-81
2022/05/23 11:38:53;;;;;;;14.40;11.88;;;20.50;99.90;;;;;;4952374;29;20224;-83
2022/05/23 11:41:33;;;;;;;14.93;11.93;;;20.60;99.90;;;;;;4939459;28;20221;-84
2022/05/23 11:44:01;;;;;;;15.63;13.82;;;20.70;99.90;;;;;;4932756;29;20229;-81
2022/05/23 11:46:50;;;;;;;11.50;10.32;;;21.00;99.90;;;;;;4932715;29;20622;-84
2022/05/23 11:49:42;;;;;;;20.30;14.60;;;21.20;99.90;;;;;;4941359;28;20225;-87
2022/05/23 11:52:23;;;;;;;14.52;13.02;;;21.20;99.90;;;;;;4953007;29;20220;-86
2022/05/23 11:54:51;;;;;;;16.90;14.10;;;21.30;99.90;;;;;;4952311;28;20220;-85
2022/05/23 11:57:33;;;;;;;19.50;12.55;;;21.30;99.90;;;;;;4952909;29;20224;-85
2022/05/23 12:00:24;;;;;;;17.40;14.48;;;21.30;99.90;;;;;;4947829;28;20281;-83
2022/05/23 12:03:13;;;;;;;17.17;13.60;;;21.20;99.90;;;;;;4932518;29;20666;-87
2022/05/23 12:05:41;;;;;;;20.48;14.10;;;21.20;99.90;;;;;;4945056;28;20881;-84
2022/05/23 12:08:31;;;;;;;18.42;13.20;;;21.20;99.90;;;;;;4948492;28;20222;-83
2022/05/23 12:11:03;;;;;;;14.45;12.68;;;21.20;99.90;;;;;;4932333;29;20257;-83
2022/05/23 12:13:51;;;;;;;18.63;14.23;;;21.10;99.90;;;;;;4931315;29;20206;-79
2022/05/23 12:16:27;;;;;;;15.48;13.60;;;21.20;99.90;;;;;;4943838;28;20245;-83
2022/05/23 12:19:12;;;;;;;18.42;15.95;;;21.20;99.90;;;;;;4949714;29;20209;-82
2022/05/23 12:21:45;;;;;;;17.83;14.55;;;21.20;99.90;;;;;;4949720;29;20300;-79
2022/05/23 12:24:28;;;;;;;17.60;13.40;;;21.30;99.90;;;;;;4950175;29;20506;-80
2022/05/23 12:26:58;;;;;;;16.35;14.60;;;21.40;99.90;;;;;;4947222;29;20213;-80
2022/05/23 12:29:29;;;;;;;12.60;10.60;;;21.50;99.90;;;;;;4950783;29;20225;-87
2022/05/23 12:32:18;;;;;;;13.10;11.88;;;21.70;99.90;;;;;;4950973;28;20510;-87
2022/05/23 12:34:48;;;;;;;13.73;10.35;;;21.90;99.90;;;;;;4949032;29;20237;-79
2022/05/23 12:37:19;;;;;;;14.93;12.82;;;22.10;99.90;;;;;;4951941;29;20221;-85
2022/05/23 12:39:56;;;;;;;14.63;13.10;;;22.40;99.90;;;;;;4952209;29;20498;-77
2022/05/23 12:42:42;;;;;;;14.95;12.10;;;22.40;99.90;;;;;;4950378;28;20220;-87
2022/05/23 12:45:55;;;;;;;12.65;11.35;;;22.40;99.90;;;;;;4953259;28;20228;-85
2022/05/23 12:48:49;;;;;;;12.80;11.10;;;22.50;99.90;;;;;;4892354;29;20211;-83
2022/05/23 12:51:29;;;;;;;14.02;12.48;;;22.50;99.90;;;;;;4933113;29;20210;-84
2022/05/23 12:54:24;;;;;;;15.05;13.18;;;22.40;99.90;;;;;;4933099;29;20197;-84
2022/05/23 12:57:08;;;;;;;15.52;14.02;;;22.40;99.90;;;;;;4921409;28;20214;-80
2022/05/23 12:59:51;;;;;;;14.57;13.07;;;22.40;99.90;;;;;;4952242;29;20194;-86
2022/05/23 13:02:27;;;;;;;13.52;12.05;;;22.30;99.90;;;;;;4952848;28;20209;-85
2022/05/23 13:04:59;;;;;;;11.27;10.15;;;22.20;99.90;;;;;;4953097;29;20213;-85
2022/05/23 13:07:35;;;;;;;13.13;11.38;;;22.20;99.90;;;;;;4951407;29;20201;-81
2022/05/23 13:10:06;;;;;;;15.68;11.40;;;22.10;99.90;;;;;;4949389;28;20205;-82
2022/05/23 13:12:39;;;;;;;18.30;13.80;;;22.00;99.90;;;;;;4947924;29;20216;-80
2022/05/23 13:15:09;;;;;;;16.85;14.35;;;22.00;99.90;;;;;;4949638;28;20607;-84
2022/05/23 13:17:39;;;;;;;16.25;14.07;;;21.90;99.90;;;;;;4951322;29;20948;-84
2022/05/23 13:23:12;;;;;;;18.30;15.05;;;21.40;99.90;;;;;;4951422;28;20189;-86
2022/05/23 13:25:39;;;;;;;18.40;16.15;;;21.20;99.90;;;;;;4931274;29;20238;-80
2022/05/23 13:28:09;;;;;;;17.17;15.38;;;21.10;99.90;;;;;;4934194;29;20225;-83
2022/05/23 13:30:42;;;;;;;18.95;16.33;;;20.80;99.90;;;;;;4933012;29;20968;-84
2022/05/23 13:33:14;;;;;;;24.52;18.77;;;20.50;99.90;;;;;;4933467;28;21021;-87
2022/05/23 13:35:42;;;;;;;22.33;19.95;;;20.20;99.90;;;;;;4933270;29;20657;-85
2022/05/23 13:38:18;;;;;;;24.83;22.20;;;20.00;99.90;;;;;;4931997;28;20277;-83
2022/05/23 13:40:47;;;;;;;25.25;21.67;;;19.70;99.90;;;;;;4930579;29;20221;-81
2022/05/23 13:43:16;;;;;;;25.33;21.85;;;19.60;99.90;;;;;;4929137;29;20206;-82
2022/05/23 13:45:45;;;;;;;26.48;23.77;;;19.40;99.90;;;;;;4938234;28;20225;-83
2022/05/23 13:48:17;;;;;;;27.50;24.48;;;19.10;99.90;;;;;;4948689;29;20213;-82
2022/05/23 13:50:49;;;;;;;28.83;24.17;;;18.90;99.90;;;;;;4949008;29;20736;-81
2022/05/23 13:53:21;;;;;;;26.90;21.95;;;18.70;99.90;;;;;;4948752;28;20212;-87
2022/05/23 13:55:50;;;;;;;26.25;23.45;;;18.60;99.90;;;;;;4945413;28;20209;-91
2022/05/23 13:58:20;;;;;;;28.20;23.52;;;18.40;99.90;;;;;;4947879;29;20697;-78